createdAt,value
2022-11-05T00:00:01.224Z,104.5
2022-11-05T00:05:01.333Z,103.2
2022-11-05T00:10:01.252Z,100.5
2022-11-05T00:15:01.295Z,112.9
2022-11-05T00:20:01.182Z,111.6
2022-11-05T00:25:01.331Z,113.1
2022-11-05T00:30:01.179Z,113.7
2022-11-05T00:35:01.540Z,115.5
2022-11-05T00:40:01.167Z,102.2
2022-11-05T00:45:01.283Z,103.0
2022-11-05T00:50:01.167Z,101.4
2022-11-05T00:55:02.251Z,101.6
2022-11-05T01:00:01.187Z,105.2
2022-11-05T01:05:01.381Z,108.8
2022-11-05T01:10:01.198Z,110.8
2022-11-05T01:15:01.251Z,112.6
2022-11-05T01:20:01.187Z,113.8
2022-11-05T01:25:01.277Z,108.2
2022-11-05T01:30:01.179Z,103.4
2022-11-05T01:35:01.251Z,99.0
2022-11-05T01:40:01.184Z,95.3
2022-11-05T01:45:01.380Z,91.7
2022-11-05T01:50:01.165Z,93.9
2022-11-05T01:55:01.253Z,95.7
2022-11-05T02:00:01.165Z,98.4
2022-11-05T02:05:01.244Z,101.2
2022-11-05T02:15:01.477Z,103.3
2022-11-05T02:20:01.113Z,104.3
2022-11-05T02:25:01.268Z,105.5
2022-11-05T02:30:01.113Z,105.8
2022-11-05T02:45:00.831Z,92.6
2022-11-05T02:50:00.726Z,95.5
2022-11-05T02:55:01.816Z,106.5
2022-11-05T03:00:00.808Z,103.1
2022-11-05T03:05:00.873Z,102.2
2022-11-05T03:10:01.031Z,102.6
2022-11-05T03:25:01.586Z,106.6
2022-11-05T03:30:01.454Z,99.4
2022-11-05T03:35:01.351Z,98.9
2022-11-05T03:55:01.701Z,105.8
2022-11-05T04:00:03.004Z,106.3
2022-11-05T04:05:02.502Z,103.3
2022-11-05T04:10:01.596Z,101.5
2022-11-05T04:15:01.675Z,101.4
2022-11-05T04:20:01.619Z,100.5
2022-11-05T04:25:02.607Z,99.8
2022-11-05T04:30:02.624Z,102.2
2022-11-05T04:35:01.689Z,104.3
2022-11-05T04:40:02.594Z,108.0
2022-11-05T04:45:02.656Z,110.9
2022-11-05T04:50:01.632Z,115.9
2022-11-05T04:55:01.652Z,115.0
2022-11-05T05:00:01.911Z,114.4
2022-11-05T05:05:01.621Z,109.5
2022-11-05T05:10:01.574Z,107.6
2022-11-05T05:15:01.705Z,103.4
2022-11-05T05:20:01.547Z,105.1
2022-11-05T05:25:01.669Z,106.6
2022-11-05T05:30:06.629Z,110.7
2022-11-05T05:35:01.656Z,123.5
2022-11-05T05:40:01.568Z,127.4
2022-11-05T05:45:01.591Z,132.2
2022-11-05T05:50:01.627Z,130.5
2022-11-05T05:55:01.643Z,128.9
2022-11-05T06:00:01.881Z,118.8
2022-11-05T06:05:01.724Z,116.6
2022-11-05T06:10:01.558Z,118.4
2022-11-05T06:15:01.602Z,127.0
2022-11-05T06:20:01.566Z,133.0
2022-11-05T06:25:06.598Z,134.4
2022-11-05T06:30:01.567Z,137.6
2022-11-05T06:35:05.080Z,137.4
2022-11-05T06:45:01.639Z,134.5
2022-11-05T06:50:01.481Z,131.8
2022-11-05T06:55:01.551Z,135.1
2022-11-05T07:00:07.444Z,137.7
2022-11-05T07:05:01.658Z,136.5
2022-11-05T07:10:01.482Z,140.5
2022-11-05T07:15:06.629Z,147.2
2022-11-05T07:20:01.994Z,155.2
2022-11-05T07:25:01.726Z,167.1
2022-11-05T07:30:01.458Z,181.1
2022-11-05T07:35:06.585Z,195.4
2022-11-05T07:40:01.771Z,210.8
2022-11-05T07:45:01.642Z,220.9
2022-11-05T07:50:01.445Z,228.1
2022-11-05T07:55:01.508Z,223.4
2022-11-05T08:00:06.541Z,220.9
2022-11-05T08:05:01.656Z,212.4
2022-11-05T08:10:01.570Z,203.8
2022-11-05T08:15:02.591Z,205.4
2022-11-05T08:20:06.798Z,209.1
2022-11-05T08:25:06.545Z,209.9
2022-11-05T08:30:01.419Z,220.7
2022-11-05T08:40:01.527Z,209.0
2022-11-05T08:45:01.850Z,203.5
2022-11-05T08:50:02.501Z,196.9
2022-11-05T08:55:02.068Z,186.2
2022-11-05T09:00:01.426Z,188.2
2022-11-05T09:05:06.597Z,188.8
2022-11-05T09:10:06.470Z,189.0
2022-11-05T09:15:01.465Z,186.6
2022-11-05T09:20:01.460Z,182.2
2022-11-05T09:25:02.573Z,165.4
2022-11-05T09:30:01.394Z,157.6
2022-11-05T09:35:01.527Z,152.8
2022-11-05T09:40:01.407Z,145.8
2022-11-05T09:45:01.515Z,147.6
2022-11-05T09:50:01.389Z,142.5
2022-11-05T09:55:05.576Z,137.2
2022-11-05T10:00:01.384Z,132.1
2022-11-05T10:05:06.515Z,129.2
2022-11-05T10:10:01.400Z,121.1
2022-11-05T10:15:01.597Z,122.4
2022-11-05T10:20:01.401Z,122.1
2022-11-05T10:25:06.454Z,120.6
2022-11-05T10:30:01.371Z,121.6
2022-11-05T10:35:03.552Z,118.8
2022-11-05T10:40:01.343Z,111.2
2022-11-05T10:45:01.404Z,106.6
2022-11-05T10:50:01.336Z,99.8
2022-11-05T10:55:01.512Z,106.3
2022-11-05T11:00:01.326Z,103.7
2022-11-05T11:15:01.245Z,101.0
2022-11-05T11:25:01.199Z,102.9
2022-11-05T11:50:01.695Z,100.1
2022-11-05T11:55:01.852Z,98.1
2022-11-05T12:15:01.373Z,95.0
2022-11-05T12:35:01.550Z,104.8
2022-11-05T12:40:01.512Z,100.9
2022-11-05T12:55:00.860Z,102.2
2022-11-05T13:15:06.143Z,92.8
2022-11-05T13:20:01.063Z,93.9
2022-11-05T13:25:01.155Z,95.7
2022-11-05T13:35:01.118Z,101.5
2022-11-05T13:40:02.064Z,100.9
2022-11-05T13:45:01.088Z,99.2
2022-11-05T14:05:02.295Z,108.2
2022-11-05T14:10:02.704Z,112.6
2022-11-05T14:25:01.172Z,118.2
2022-11-05T14:45:01.467Z,141.6
2022-11-05T15:05:02.822Z,109.0
2022-11-05T15:25:01.018Z,166.4
2022-11-05T15:30:01.059Z,166.4
2022-11-05T15:35:01.086Z,167.9
2022-11-05T15:40:00.954Z,169.3
2022-11-05T15:45:01.050Z,173.1
2022-11-05T15:50:06.563Z,177.4
2022-11-05T15:55:02.063Z,181.0
2022-11-05T16:15:01.698Z,190.6
2022-11-05T16:35:01.048Z,201.6
2022-11-05T16:40:01.230Z,197.0
2022-11-05T16:45:01.053Z,196.0
2022-11-05T16:50:00.994Z,197.4
2022-11-05T16:55:01.164Z,198.0
2022-11-05T17:00:00.936Z,199.3
2022-11-05T17:05:02.081Z,202.2
2022-11-05T17:10:00.927Z,202.4
2022-11-05T17:15:01.018Z,201.8
2022-11-05T17:20:02.025Z,200.8
2022-11-05T17:25:01.605Z,198.7
2022-11-05T17:30:00.929Z,187.6
2022-11-05T17:35:01.079Z,178.1
2022-11-05T17:40:00.929Z,166.9
2022-11-05T17:45:01.001Z,170.5
2022-11-05T17:50:00.947Z,163.5
2022-11-05T17:55:04.614Z,162.5
2022-11-05T18:00:00.928Z,161.5
2022-11-05T18:05:01.584Z,159.6
2022-11-05T18:10:00.938Z,142.1
2022-11-05T18:15:01.479Z,140.2
2022-11-05T18:20:01.248Z,141.3
2022-11-05T18:25:01.389Z,141.5
2022-11-05T18:30:00.959Z,137.3
2022-11-05T18:35:01.096Z,139.6
2022-11-05T18:40:00.939Z,133.4
2022-11-05T18:45:07.098Z,132.6
2022-11-05T18:50:00.930Z,133.4
2022-11-05T18:55:01.024Z,151.6
2022-11-05T19:00:00.931Z,151.0
2022-11-05T19:05:27.208Z,158.6
2022-11-05T19:10:05.975Z,155.7
2022-11-05T19:15:02.550Z,158.6
2022-11-05T19:20:00.962Z,146.0
2022-11-05T19:25:01.004Z,145.6
2022-11-05T19:30:00.960Z,140.2
2022-11-05T19:35:01.097Z,137.3
2022-11-05T19:40:00.951Z,140.3
2022-11-05T19:45:16.972Z,138.4
2022-11-05T19:50:01.087Z,141.2
2022-11-05T19:55:01.000Z,141.8
2022-11-05T20:00:01.007Z,145.6
2022-11-05T20:05:02.035Z,136.8
2022-11-05T20:10:01.095Z,141.6
2022-11-05T20:15:01.992Z,140.4
2022-11-05T20:20:01.966Z,143.7
2022-11-05T20:25:06.712Z,151.4
2022-11-05T20:30:00.939Z,155.2
2022-11-05T20:35:06.553Z,155.9
2022-11-05T20:40:00.931Z,157.3
2022-11-05T20:45:06.025Z,157.4
2022-11-05T20:50:00.967Z,156.1
2022-11-05T20:55:01.061Z,156.7
2022-11-05T21:00:01.955Z,158.1
2022-11-05T21:05:01.229Z,163.0
2022-11-05T21:10:00.933Z,164.3
2022-11-05T21:15:01.406Z,164.0
2022-11-05T21:20:00.942Z,163.8
2022-11-05T21:25:01.078Z,163.4
2022-11-05T21:30:00.940Z,161.2
2022-11-05T21:35:01.044Z,163.6
2022-11-05T21:45:06.097Z,165.6
2022-11-05T21:50:00.940Z,166.3
2022-11-05T21:55:01.102Z,167.7
2022-11-05T22:00:00.943Z,166.7
2022-11-05T22:05:01.171Z,166.5
2022-11-05T22:15:01.010Z,166.3
2022-11-05T22:20:01.130Z,174.2
2022-11-05T22:25:02.190Z,174.7
2022-11-05T22:30:01.076Z,174.2
2022-11-05T22:35:01.070Z,174.4
2022-11-05T22:40:01.294Z,172.2
2022-11-05T22:45:01.101Z,163.7
2022-11-05T22:50:00.954Z,159.2
2022-11-05T22:55:01.412Z,154.4
2022-11-05T23:00:00.948Z,146.7
2022-11-05T23:05:01.041Z,151.2
2022-11-05T23:10:00.943Z,147.7
2022-11-05T23:15:01.012Z,145.8
2022-11-05T23:20:00.947Z,146.5
2022-11-05T23:25:01.037Z,149.4
2022-11-05T23:30:02.041Z,144.1
2022-11-05T23:35:01.012Z,142.8
2022-11-05T23:40:00.977Z,143.8
2022-11-05T23:45:02.018Z,144.6
2022-11-05T23:50:01.304Z,145.1
2022-11-05T23:55:01.363Z,147.6
